Time;durP1;ratioP1;P1;durP2;ratioP2;P2;SDS_P1;SDS_P2;PMS_P1;PMS_P2;Temp;Humidity;BMP_temperature;BMP_pressure;BME280_temperature;BME280_humidity;BME280_pressure;Samples;Min_cycle;Max_cycle;Signal;HPM_P1;HPM_P2
2022/04/23 00:02:42;;;;;;;;;;;;;;;1.08;46.08;96991.63;6370658;27;19932;-64
2022/04/23 00:05:46;;;;;;;;;;;;;;;1.03;46.59;96990.88;6353065;27;19930;-63
2022/04/23 00:08:47;;;;;;;;;;;;;;;1.01;47.36;96992.66;6370327;27;19931;-64
2022/04/23 00:11:48;;;;;;;;;;;;;;;0.98;47.38;96997.91;6371751;28;20285;-65
2022/04/23 00:14:53;;;;;;;;;;;;;;;0.94;47.04;96991.09;6371570;28;19919;-65
2022/04/23 00:17:57;;;;;;;;;;;;;;;0.89;47.25;96994.66;6371690;28;19923;-65
2022/04/23 00:20:58;;;;;;;;;;;;;;;0.85;46.60;97000.81;6370921;28;19923;-65
2022/04/23 00:23:59;;;;;;;;;;;;;;;0.82;47.01;96998.28;6370766;28;19927;-64
2022/04/23 00:27:00;;;;;;;;;;;;;;;0.78;47.07;97000.97;6369779;28;20291;-65
2022/04/23 00:30:02;;;;;;;;;;;;;;;0.75;47.82;97001.91;6370567;28;19924;-63
2022/04/23 00:33:04;;;;;;;;;;;;;;;0.77;47.15;97004.47;6371170;28;19923;-64
2022/04/23 00:36:10;;;;;;;;;;;;;;;0.74;47.24;97000.22;6371324;28;20026;-64
2022/04/23 00:39:11;;;;;;;;;;;;;;;0.73;47.00;97002.81;6370426;28;19931;-65
2022/04/23 00:42:12;;;;;;;;;;;;;;;0.70;46.48;97003.75;6370565;28;19923;-65
2022/04/23 00:45:13;;;;;;;;;;;;;;;0.70;47.08;97008.94;6351916;28;19942;-64
2022/04/23 00:48:17;;;;;;;;;;;;;;;0.67;46.62;96998.63;6371274;27;19923;-65
2022/04/23 00:51:21;;;;;;;;;;;;;;;0.65;47.22;97005.59;6375759;27;19923;-64
2022/04/23 00:54:22;;;;;;;;;;;;;;;0.64;46.85;97003.91;6375063;27;19923;-64
2022/04/23 00:57:30;;;;;;;;;;;;;;;0.64;47.52;97014.25;6375950;27;20338;-64
2022/04/23 01:00:33;;;;;;;;;;;;;;;0.64;47.32;97014.25;6375309;27;19923;-64
2022/04/23 01:03:37;;;;;;;;;;;;;;;0.62;47.35;97022.06;6374795;27;19924;-63
2022/04/23 01:06:38;;;;;;;;;;;;;;;0.64;47.30;97022.03;6374781;27;19924;-63
2022/04/23 01:09:44;;;;;;;;;;;;;;;0.65;48.00;97028.91;6375854;27;19959;-65
2022/04/23 01:12:47;;;;;;;;;;;;;;;0.66;47.59;97022.84;6375732;27;20397;-65
2022/04/23 01:15:57;;;;;;;;;;;;;;;0.67;47.86;97027.13;6375087;27;20373;-65
2022/04/23 01:19:00;;;;;;;;;;;;;;;0.72;47.53;97030.47;6375000;27;19968;-64
2022/04/23 01:22:02;;;;;;;;;;;;;;;0.75;47.32;97024.38;6374502;27;20308;-64
2022/04/23 01:25:06;;;;;;;;;;;;;;;0.79;46.86;97037.22;6374831;27;19928;-64
2022/04/23 01:28:09;;;;;;;;;;;;;;;0.85;46.75;97038.78;6374667;27;20339;-65
2022/04/23 01:31:10;;;;;;;;;;;;;;;0.89;47.09;97041.28;6374956;27;19923;-65
2022/04/23 01:34:12;;;;;;;;;;;;;;;0.95;47.35;97042.03;6374211;27;19931;-65
2022/04/23 01:37:17;;;;;;;;;;;;;;;0.99;46.96;97043.66;6374556;27;19923;-65
2022/04/23 01:40:19;;;;;;;;;;;;;;;1.00;47.80;97042.78;6374592;27;20407;-65
2022/04/23 01:43:20;;;;;;;;;;;;;;;1.05;47.52;97049.56;6373935;27;20364;-63
2022/04/23 01:46:23;;;;;;;;;;;;;;;1.11;47.47;97045.97;6356818;27;20384;-64
2022/04/23 01:49:28;;;;;;;;;;;;;;;1.20;46.98;97050.91;6374854;27;19923;-64
2022/04/23 01:52:31;;;;;;;;;;;;;;;1.24;47.21;97052.50;6374770;27;19919;-65
2022/04/23 01:55:35;;;;;;;;;;;;;;;1.31;46.78;97048.91;6373628;27;19924;-64
2022/04/23 01:58:38;;;;;;;;;;;;;;;1.40;47.24;97052.16;6374378;27;19920;-63
2022/04/23 02:01:41;;;;;;;;;;;;;;;1.47;47.69;97053.69;6373556;27;19929;-64
2022/04/23 02:04:44;;;;;;;;;;;;;;;1.54;47.64;97055.22;6356436;27;20311;-64
2022/04/23 02:07:45;;;;;;;;;;;;;;;1.63;47.42;97060.16;6373399;27;19935;-64
2022/04/23 02:10:47;;;;;;;;;;;;;;;1.72;46.42;97054.72;6373489;27;19923;-65
2022/04/23 02:13:49;;;;;;;;;;;;;;;1.80;46.01;97063.16;6373578;27;19926;-65
2022/04/23 02:16:50;;;;;;;;;;;;;;;1.90;46.37;97062.94;6373510;27;19924;-65
2022/04/23 02:19:53;;;;;;;;;;;;;;;1.97;46.10;97061.84;6373120;27;19919;-65
2022/04/23 02:22:54;;;;;;;;;;;;;;;2.08;45.85;97061.56;6373427;27;20304;-64
2022/04/23 02:25:55;;;;;;;;;;;;;;;2.20;46.48;97076.78;6373060;27;19930;-64
2022/04/23 02:28:56;;;;;;;;;;;;;;;2.36;46.46;97066.81;6373110;27;20304;-64
2022/04/23 02:31:57;;;;;;;;;;;;;;;2.49;46.45;97068.13;6373096;27;19930;-64
2022/04/23 02:35:00;;;;;;;;;;;;;;;2.63;46.10;97071.19;6373603;27;19927;-64
2022/04/23 02:38:02;;;;;;;;;;;;;;;2.72;45.95;97079.59;6373208;27;19923;-64
2022/04/23 02:41:06;;;;;;;;;;;;;;;2.83;45.55;97075.78;6373548;27;20006;-65
2022/04/23 02:44:08;;;;;;;;;;;;;;;2.96;45.00;97078.84;6372659;27;19923;-66
2022/04/23 02:47:09;;;;;;;;;;;;;;;3.08;44.95;97078.44;6372322;27;19927;-65
2022/04/23 02:50:10;;;;;;;;;;;;;;;3.25;45.01;97087.47;6372182;27;19924;-65
2022/04/23 02:53:11;;;;;;;;;;;;;;;3.40;44.33;97079.19;6372540;27;19919;-65
2022/04/23 02:56:13;;;;;;;;;;;;;;;3.54;44.48;97081.31;6372178;27;19935;-66
2022/04/23 02:59:14;;;;;;;;;;;;;;;3.69;44.15;97087.75;6372010;27;19926;-64
2022/04/23 03:02:17;;;;;;;;;;;;;;;3.80;44.16;97088.25;6372826;27;20319;-65
2022/04/23 03:05:18;;;;;;;;;;;;;;;3.89;44.32;97081.84;6372198;27;19942;-65
2022/04/23 03:08:21;;;;;;;;;;;;;;;3.99;43.92;97094.50;6372571;27;20407;-64
2022/04/23 03:11:23;;;;;;;;;;;;;;;4.12;43.57;97096.66;6371622;27;19923;-65
2022/04/23 03:14:24;;;;;;;;;;;;;;;4.25;43.49;97096.19;6371392;27;20308;-63
2022/04/23 03:17:27;;;;;;;;;;;;;;;4.35;43.20;97096.69;6372125;27;20336;-65
2022/04/23 03:20:30;;;;;;;;;;;;;;;4.44;43.25;97095.50;6372779;27;19924;-64
2022/04/23 03:23:34;;;;;;;;;;;;;;;4.54;43.15;97096.03;6372732;27;19924;-65
2022/04/23 03:26:38;;;;;;;;;;;;;;;4.65;42.81;97096.47;6372464;27;19923;-64
2022/04/23 03:29:39;;;;;;;;;;;;;;;4.78;42.54;97095.06;6371703;27;20316;-64
2022/04/23 03:32:42;;;;;;;;;;;;;;;4.95;42.17;97095.31;6372322;27;19939;-65
2022/04/23 03:35:44;;;;;;;;;;;;;;;5.06;41.79;97099.22;6371305;27;20388;-65
2022/04/23 03:38:47;;;;;;;;;;;;;;;5.21;41.89;97098.63;6372103;27;20384;-65
2022/04/23 03:41:49;;;;;;;;;;;;;;;5.29;41.68;97101.75;6371291;27;20010;-64
2022/04/23 03:44:50;;;;;;;;;;;;;;;5.39;41.62;97103.09;6371308;27;19930;-64
2022/04/23 03:47:53;;;;;;;;;;;;;;;5.49;41.45;97097.50;6371756;27;19929;-65
2022/04/23 03:50:55;;;;;;;;;;;;;;;5.65;41.48;97103.78;6371150;27;19959;-64
2022/04/23 03:53:56;;;;;;;;;;;;;;;5.78;40.98;97115.44;6371494;27;19930;-64
2022/04/23 03:56:58;;;;;;;;;;;;;;;5.92;40.64;97114.00;6370984;27;19923;-65
2022/04/23 04:00:04;;;;;;;;;;;;;;;5.98;40.28;97111.16;6371653;27;19923;-64
2022/04/23 04:03:24;;;;;;;;;;;;;;;6.11;39.97;97114.09;6370809;27;19931;-64
2022/04/23 04:06:28;;;;;;;;;;;;;;;6.25;39.67;97109.94;6353127;27;19930;-65
2022/04/23 04:09:29;;;;;;;;;;;;;;;6.33;39.23;97112.25;6371107;27;19927;-65
2022/04/23 04:12:30;;;;;;;;;;;;;;;6.49;38.54;97112.41;6370824;28;20388;-65
2022/04/23 04:15:34;;;;;;;;;;;;;;;6.50;38.06;97114.09;6370867;28;19919;-65
2022/04/23 04:18:35;;;;;;;;;;;;;;;6.58;38.27;97116.38;6370923;28;19930;-65
2022/04/23 04:21:38;;;;;;;;;;;;;;;6.73;37.64;97111.28;6371563;28;20107;-65
2022/04/23 04:24:40;;;;;;;;;;;;;;;6.84;37.75;97123.88;6374153;27;19923;-65
2022/04/23 04:27:43;;;;;;;;;;;;;;;7.00;37.16;97118.81;6376489;27;19923;-66
2022/04/23 04:34:20;;;;;;;;;;;;;;;7.27;36.36;97113.16;6344547;27;19924;-64
2022/04/23 04:37:21;;;;;;;;;;;;;;;7.39;36.00;97112.59;6375661;27;19929;-64
2022/04/23 04:40:22;;;;;;;;;;;;;;;7.53;35.06;97117.16;6375657;27;20009;-65
2022/04/23 04:43:24;;;;;;;;;;;;;;;7.64;34.98;97114.84;6357772;27;19930;-65
2022/04/23 04:46:28;;;;;;;;;;;;;;;7.86;34.08;97114.63;6376125;27;19968;-65
2022/04/23 04:49:29;;;;;;;;;;;;;;;8.06;32.87;97116.25;6375153;27;20400;-65
2022/04/23 04:52:30;;;;;;;;;;;;;;;8.13;32.96;97103.69;6374926;27;19946;-64
2022/04/23 04:55:36;;;;;;;;;;;;;;;8.56;31.83;97104.09;6375916;27;19924;-64
2022/04/23 04:58:38;;;;;;;;;;;;;;;12.11;28.11;97119.63;6375176;27;19930;-64
2022/04/23 05:01:39;;;;;;;;;;;;;;;17.04;23.08;97127.72;6375323;27;19930;-65
2022/04/23 05:04:40;;;;;;;;;;;;;;;20.98;19.76;97137.56;6374900;27;20013;-64
2022/04/23 05:07:44;;;;;;;;;;;;;;;24.30;18.20;97141.50;6375801;27;20025;-66
2022/04/23 05:10:46;;;;;;;;;;;;;;;27.68;16.67;97149.22;6375015;27;19938;-65
2022/04/23 05:13:49;;;;;;;;;;;;;;;30.66;15.09;97147.31;6374940;27;19924;-64
2022/04/23 05:16:50;;;;;;;;;;;;;;;33.27;13.95;97158.38;6374575;27;19930;-65
2022/04/23 05:19:53;;;;;;;;;;;;;;;35.40;12.66;97163.88;6375022;27;19924;-65
2022/04/23 05:22:54;;;;;;;;;;;;;;;36.52;11.84;97162.59;6374291;27;20288;-65
2022/04/23 05:25:56;;;;;;;;;;;;;;;37.58;10.94;97160.22;6374716;27;20314;-64
2022/04/23 05:28:57;;;;;;;;;;;;;;;38.63;10.25;97154.59;6374511;27;19923;-66
2022/04/23 05:31:58;;;;;;;;;;;;;;;39.54;9.98;97146.63;6374339;27;20407;-65
2022/04/23 05:35:02;;;;;;;;;;;;;;;40.30;7.69;97167.59;6373304;27;20403;-65
2022/04/23 05:38:09;;;;;;;;;;;;;;;39.88;7.37;97153.13;6374742;27;20391;-66
2022/04/23 05:41:10;;;;;;;;;;;;;;;40.01;7.87;97151.72;6374169;27;19963;-66
2022/04/23 05:44:11;;;;;;;;;;;;;;;41.54;6.91;97166.41;6374261;27;19946;-64
2022/04/23 05:47:14;;;;;;;;;;;;;;;41.43;6.51;97162.09;6373966;27;20737;-65
2022/04/23 05:50:16;;;;;;;;;;;;;;;41.05;5.84;97159.97;6373570;27;19930;-65
2022/04/23 05:53:19;;;;;;;;;;;;;;;40.63;5.93;97159.72;6373980;27;20018;-65
2022/04/23 05:56:23;;;;;;;;;;;;;;;41.70;5.08;97169.81;6354830;27;20459;-65
2022/04/23 05:59:30;;;;;;;;;;;;;;;41.23;4.57;97161.16;6372944;27;19949;-64
2022/04/23 06:02:34;;;;;;;;;;;;;;;40.75;4.37;97165.69;6355102;27;19927;-65
2022/04/23 06:05:38;;;;;;;;;;;;;;;39.81;5.59;97158.13;6374220;27;20010;-65
2022/04/23 06:08:43;;;;;;;;;;;;;;;41.20;5.19;97166.47;6374066;27;20021;-65
2022/04/23 06:11:44;;;;;;;;;;;;;;;42.30;4.19;97167.47;6354579;27;20339;-65
2022/04/23 06:14:49;;;;;;;;;;;;;;;42.67;4.30;97157.56;6374015;27;20303;-66
2022/04/23 06:17:53;;;;;;;;;;;;;;;43.50;4.65;97155.91;6373893;27;19930;-65
2022/04/23 06:20:57;;;;;;;;;;;;;;;44.34;4.00;97162.31;6373167;27;19931;-65
2022/04/23 06:23:58;;;;;;;;;;;;;;;45.00;3.47;97166.34;6373104;27;19944;-65
2022/04/23 06:26:59;;;;;;;;;;;;;;;44.79;3.74;97166.03;6372894;27;20015;-65
2022/04/23 06:30:03;;;;;;;;;;;;;;;44.60;3.23;97160.63;6354824;27;19927;-65
2022/04/23 06:33:05;;;;;;;;;;;;;;;43.83;3.60;97155.06;6371892;27;20018;-64
2022/04/23 06:36:06;;;;;;;;;;;;;;;43.27;2.92;97146.66;6371656;27;19924;-65
2022/04/23 06:39:07;;;;;;;;;;;;;;;41.84;4.26;97140.41;6372495;27;19923;-65
2022/04/23 06:42:14;;;;;;;;;;;;;;;43.64;2.77;97150.41;6372982;27;20407;-64
2022/04/23 06:45:19;;;;;;;;;;;;;;;42.39;3.26;97138.03;6353427;27;19931;-65
2022/04/23 06:48:20;;;;;;;;;;;;;;;42.50;3.58;97135.16;6370649;27;19923;-65
2022/04/23 06:51:24;;;;;;;;;;;;;;;44.23;3.08;97141.50;6371886;27;19923;-65
2022/04/23 06:54:25;;;;;;;;;;;;;;;44.94;2.60;97142.63;6372170;27;19931;-65
2022/04/23 06:57:26;;;;;;;;;;;;;;;43.76;2.63;97140.78;6371551;27;19923;-64
2022/04/23 07:00:31;;;;;;;;;;;;;;;43.38;3.22;97129.84;6372843;27;19927;-65
2022/04/23 07:03:35;;;;;;;;;;;;;;;42.21;3.05;97127.78;6353917;27;19957;-65
2022/04/23 07:06:36;;;;;;;;;;;;;;;41.39;4.02;97125.97;6372185;27;19929;-66
2022/04/23 07:09:44;;;;;;;;;;;;;;;42.14;3.65;97119.84;6372519;27;19923;-66
2022/04/23 07:12:48;;;;;;;;;;;;;;;42.54;2.87;97127.88;6372570;27;20388;-65
2022/04/23 07:15:52;;;;;;;;;;;;;;;42.91;3.28;97121.50;6372499;27;19923;-65
2022/04/23 07:18:58;;;;;;;;;;;;;;;44.08;3.11;97137.91;6372320;27;20038;-65
2022/04/23 07:22:07;;;;;;;;;;;;;;;44.49;2.58;97137.03;6372473;27;19924;-68
2022/04/23 07:25:10;;;;;;;;;;;;;;;44.93;2.62;97138.22;6371560;27;19924;-65
2022/04/23 07:28:13;;;;;;;;;;;;;;;44.27;2.64;97121.13;6372403;27;20022;-67
2022/04/23 07:31:17;;;;;;;;;;;;;;;43.43;2.29;97110.38;6372316;27;20022;-65
2022/04/23 07:37:40;;;;;;;;;;;;;;;42.68;2.92;97117.69;6371168;27;19923;-65
2022/04/23 07:40:42;;;;;;;;;;;;;;;43.68;2.59;97112.66;6371553;27;19923;-65
2022/04/23 07:43:43;;;;;;;;;;;;;;;45.38;2.12;97115.97;6371080;27;19930;-65
2022/04/23 07:46:46;;;;;;;;;;;;;;;46.02;2.14;97111.97;6371609;27;19976;-65
2022/04/23 07:49:50;;;;;;;;;;;;;;;46.80;2.14;97115.69;6371500;27;19942;-66
2022/04/23 07:52:52;;;;;;;;;;;;;;;47.04;1.63;97117.13;6370888;27;19977;-65
2022/04/23 07:55:53;;;;;;;;;;;;;;;45.60;2.22;97119.84;6352958;27;19923;-66
2022/04/23 07:58:55;;;;;;;;;;;;;;;45.19;2.16;97112.59;6370097;27;20006;-66
2022/04/23 08:01:58;;;;;;;;;;;;;;;44.98;2.07;97115.03;6371479;27;19923;-65
2022/04/23 08:05:01;;;;;;;;;;;;;;;44.27;2.18;97106.44;6371782;27;20339;-67
2022/04/23 08:08:06;;;;;;;;;;;;;;;43.36;2.53;97104.41;6371031;27;20397;-65
2022/04/23 08:11:12;;;;;;;;;;;;;;;44.48;2.47;97095.72;6371592;27;19923;-65
2022/04/23 08:14:14;;;;;;;;;;;;;;;44.41;2.61;97093.38;6370812;28;19919;-65
2022/04/23 08:17:15;;;;;;;;;;;;;;;43.80;2.09;97100.25;6370216;28;20336;-66
2022/04/23 08:20:16;;;;;;;;;;;;;;;42.45;2.85;97085.44;6370712;28;19980;-65
2022/04/23 08:23:20;;;;;;;;;;;;;;;42.29;2.67;97088.38;6371329;28;19935;-65
2022/04/23 08:26:23;;;;;;;;;;;;;;;42.82;2.84;97102.00;6370072;28;19943;-65
2022/04/23 08:32:46;;;;;;;;;;;;;;;41.37;2.83;97088.69;6370511;28;19923;-67
2022/04/23 08:35:50;;;;;;;;;;;;;;;40.75;3.35;97088.44;6371283;28;19924;-66
2022/04/23 08:38:56;;;;;;;;;;;;;;;41.08;3.24;97085.94;6370447;28;19984;-65
2022/04/23 08:42:01;;;;;;;;;;;;;;;41.58;2.80;97076.31;6371309;28;19929;-67
2022/04/23 08:45:07;;;;;;;;;;;;;;;41.70;2.55;97087.78;6371434;28;19924;-66
2022/04/23 08:48:14;;;;;;;;;;;;;;;39.49;3.20;97078.59;6370958;28;20291;-65
2022/04/23 08:51:22;;;;;;;;;;;;;;;39.01;3.42;97073.47;6370264;28;19923;-65
2022/04/23 08:54:24;;;;;;;;;;;;;;;40.15;3.28;97081.09;6335102;28;19967;-65
2022/04/23 08:57:28;;;;;;;;;;;;;;;40.71;2.96;97081.84;6370951;28;20285;-65
2022/04/23 09:00:29;;;;;;;;;;;;;;;41.10;3.10;97089.25;6370409;28;19928;-66
2022/04/23 09:03:33;;;;;;;;;;;;;;;40.91;3.15;97086.34;6371135;28;19919;-65
2022/04/23 09:06:43;;;;;;;;;;;;;;;39.17;3.69;97092.72;6370671;28;19923;-65
2022/04/23 09:13:10;;;;;;;;;;;;;;;36.02;4.40;97070.53;6374842;27;19946;-65
2022/04/23 09:26:18;;;;;;;;;;;;;;;34.13;4.94;97067.69;6375257;27;19923;-65
2022/04/23 09:29:22;;;;;;;;;;;;;;;34.20;5.06;97068.38;6375180;27;19923;-65
2022/04/23 09:32:23;;;;;;;;;;;;;;;34.64;4.80;97068.59;6374023;27;19929;-66
2022/04/23 09:35:26;;;;;;;;;;;;;;;35.63;4.58;97078.00;6356041;27;20308;-66
2022/04/23 09:38:31;;;;;;;;;;;;;;;35.53;4.42;97075.94;6375136;27;20396;-65
2022/04/23 09:41:38;;;;;;;;;;;;;;;34.53;4.99;97077.69;6375090;27;19923;-65
2022/04/23 09:44:43;;;;;;;;;;;;;;;33.57;5.30;97063.84;6374531;27;19923;-66
2022/04/23 09:47:47;;;;;;;;;;;;;;;34.64;4.97;97068.59;6374561;27;19927;-66
2022/04/23 09:50:48;;;;;;;;;;;;;;;34.87;4.69;97073.88;6374706;27;20342;-66
2022/04/23 09:53:50;;;;;;;;;;;;;;;33.54;5.42;97054.25;6373665;27;19923;-65
2022/04/23 09:56:51;;;;;;;;;;;;;;;31.54;5.90;97071.03;6373705;27;19927;-65
2022/04/23 09:59:58;;;;;;;;;;;;;;;30.28;6.40;97063.19;6374506;27;19923;-65
2022/04/23 10:03:00;;;;;;;;;;;;;;;30.91;6.25;97056.84;6373835;27;19923;-64
2022/04/23 10:06:04;;;;;;;;;;;;;;;30.57;6.16;97056.28;6373682;27;19924;-65
2022/04/23 10:09:09;;;;;;;;;;;;;;;31.53;5.93;97071.22;6373628;27;19923;-66
2022/04/23 10:12:15;;;;;;;;;;;;;;;31.38;6.13;97057.22;6374085;27;19923;-65
2022/04/23 10:15:17;;;;;;;;;;;;;;;31.14;6.25;97062.47;6355540;27;19920;-66
2022/04/23 10:18:18;;;;;;;;;;;;;;;31.84;5.72;97056.59;6372823;27;19930;-65
2022/04/23 10:21:41;;;;;;;;;;;;;;;31.55;5.60;97063.69;6373412;27;19924;-65
2022/04/23 10:24:47;;;;;;;;;;;;;;;31.23;5.96;97063.81;6373738;27;20087;-65
2022/04/23 10:27:50;;;;;;;;;;;;;;;30.84;6.35;97057.75;6372706;27;19965;-66
2022/04/23 10:31:11;;;;;;;;;;;;;;;30.98;5.81;97052.19;6373194;27;20316;-65
2022/04/23 10:34:31;;;;;;;;;;;;;;;30.14;6.13;97057.00;6372793;27;20423;-65
2022/04/23 10:37:40;;;;;;;;;;;;;;;29.69;6.35;97038.06;6373428;27;19923;-65
2022/04/23 10:40:41;;;;;;;;;;;;;;;29.13;6.64;97041.38;6372167;27;19923;-64
2022/04/23 10:43:57;;;;;;;;;;;;;;;30.01;6.39;97043.50;6372763;27;19931;-65
2022/04/23 10:46:58;;;;;;;;;;;;;;;31.13;5.81;97043.66;6372066;27;20272;-65
2022/04/23 10:50:29;;;;;;;;;;;;;;;31.60;6.01;97047.53;6372580;27;19923;-65
2022/04/23 10:53:37;;;;;;;;;;;;;;;31.20;6.06;97039.81;6351109;27;19963;-65
2022/04/23 10:56:40;;;;;;;;;;;;;;;31.29;5.97;97046.59;6371639;27;19930;-65
2022/04/23 10:59:44;;;;;;;;;;;;;;;31.19;6.22;97048.19;6371749;27;19923;-65
2022/04/23 11:02:48;;;;;;;;;;;;;;;30.84;6.30;97046.88;6371647;27;20408;-65
2022/04/23 11:12:55;;;;;;;;;;;;;;;28.79;6.86;97035.19;6372946;27;19945;-65
2022/04/23 11:16:09;;;;;;;;;;;;;;;27.60;7.46;97031.31;6371424;27;19946;-66
2022/04/23 11:19:14;;;;;;;;;;;;;;;27.47;7.51;97033.97;6372494;27;19927;-66
2022/04/23 11:22:20;;;;;;;;;;;;;;;26.97;7.53;97028.69;6372666;27;19923;-65
2022/04/23 11:25:24;;;;;;;;;;;;;;;26.82;7.66;97023.41;6372344;27;20368;-65
2022/04/23 11:28:30;;;;;;;;;;;;;;;26.56;7.83;97032.19;6372513;27;19977;-65
2022/04/23 11:31:34;;;;;;;;;;;;;;;25.85;8.17;97032.16;6371882;27;19923;-66
2022/04/23 11:34:39;;;;;;;;;;;;;;;25.57;8.26;97025.81;6370496;27;20293;-65
2022/04/23 11:37:43;;;;;;;;;;;;;;;26.23;7.85;97026.47;6371628;27;19927;-65
2022/04/23 11:40:44;;;;;;;;;;;;;;;26.27;8.03;97029.63;6371999;27;19923;-65
2022/04/23 11:43:45;;;;;;;;;;;;;;;26.11;8.06;97030.75;6371325;27;19930;-65
2022/04/23 11:46:53;;;;;;;;;;;;;;;25.92;8.38;97030.34;6371053;27;19923;-65
2022/04/23 11:49:54;;;;;;;;;;;;;;;25.10;9.19;97027.91;6352937;27;19930;-65
2022/04/23 11:53:01;;;;;;;;;;;;;;;24.48;9.29;97025.56;6352942;27;20107;-65
2022/04/23 11:56:03;;;;;;;;;;;;;;;23.56;10.20;97031.78;6371611;27;19930;-65
2022/04/23 11:59:07;;;;;;;;;;;;;;;23.77;9.82;97028.47;6370811;27;20292;-65
2022/04/23 12:02:22;;;;;;;;;;;;;;;24.37;9.58;97024.09;6370690;27;20396;-66
2022/04/23 12:05:24;;;;;;;;;;;;;;;24.39;9.65;97036.34;6370209;27;20021;-65
2022/04/23 12:08:27;;;;;;;;;;;;;;;23.53;9.99;97032.13;6370389;27;19955;-63
2022/04/23 12:11:28;;;;;;;;;;;;;;;22.91;10.30;97026.69;6352564;27;20299;-65
2022/04/23 12:14:30;;;;;;;;;;;;;;;22.32;10.59;97029.66;6371566;27;20358;-65
2022/04/23 12:17:42;;;;;;;;;;;;;;;21.42;10.85;97024.22;6370758;28;20273;-65
2022/04/23 12:20:50;;;;;;;;;;;;;;;20.92;11.27;97028.53;6371430;28;19924;-66
2022/04/23 12:23:51;;;;;;;;;;;;;;;20.95;11.25;97022.88;6370604;28;19924;-65
2022/04/23 12:27:00;;;;;;;;;;;;;;;20.91;11.35;97020.66;6371492;28;19923;-65
2022/04/23 12:43:39;;;;;;;;;;;;;;;20.02;10.71;97027.94;6371046;27;20420;-65
2022/04/23 12:46:52;;;;;;;;;;;;;;;19.54;11.08;97030.97;6376334;27;20330;-65
2022/04/23 12:49:56;;;;;;;;;;;;;;;19.54;11.08;97036.31;6375594;27;19929;-64
2022/04/23 12:52:57;;;;;;;;;;;;;;;19.26;11.75;97029.19;6375434;27;19923;-65
2022/04/23 12:56:03;;;;;;;;;;;;;;;18.97;11.84;97029.34;6376084;27;20034;-65
2022/04/23 12:59:07;;;;;;;;;;;;;;;18.81;11.93;97034.47;6375761;27;20300;-65
2022/04/23 13:02:09;;;;;;;;;;;;;;;18.30;12.55;97039.22;6356552;27;19928;-66
2022/04/23 13:05:11;;;;;;;;;;;;;;;18.13;12.60;97035.47;6375624;27;20308;-65
2022/04/23 13:11:31;;;;;;;;;;;;;;;17.99;12.91;97051.06;6375500;27;19930;-64
2022/04/23 13:14:32;;;;;;;;;;;;;;;17.46;13.12;97039.78;6374204;27;19930;-65
2022/04/23 13:17:38;;;;;;;;;;;;;;;17.00;13.44;97029.75;6375044;27;19923;-65
2022/04/23 13:20:43;;;;;;;;;;;;;;;17.18;13.91;97037.91;6375212;27;19923;-66
2022/04/23 13:23:45;;;;;;;;;;;;;;;16.77;14.09;97039.75;6375762;27;20403;-64
2022/04/23 13:26:51;;;;;;;;;;;;;;;16.87;14.22;97043.31;6375196;27;20075;-66
2022/04/23 13:29:52;;;;;;;;;;;;;;;16.51;14.51;97026.91;6374242;27;19920;-65
2022/04/23 13:32:54;;;;;;;;;;;;;;;16.05;14.83;97038.78;6375078;27;19923;-64
2022/04/23 13:35:58;;;;;;;;;;;;;;;16.09;14.65;97029.59;6375190;27;20376;-65
2022/04/23 13:39:01;;;;;;;;;;;;;;;15.89;14.87;97023.31;6374849;27;20364;-65
2022/04/23 13:42:02;;;;;;;;;;;;;;;15.96;15.05;97033.41;6374567;27;20350;-64
2022/04/23 13:45:08;;;;;;;;;;;;;;;15.93;14.75;97031.84;6355646;27;19976;-65
2022/04/23 13:48:10;;;;;;;;;;;;;;;15.61;14.82;97039.81;6374311;27;19927;-65
2022/04/23 13:51:14;;;;;;;;;;;;;;;15.77;14.58;97042.06;6355973;27;19931;-65
2022/04/23 13:54:17;;;;;;;;;;;;;;;15.63;14.59;97038.72;6374865;27;19923;-65
2022/04/23 13:57:18;;;;;;;;;;;;;;;15.41;14.76;97034.34;6372887;27;20333;-64
2022/04/23 14:00:20;;;;;;;;;;;;;;;15.33;14.77;97046.53;6373518;27;19992;-65
2022/04/23 14:10:04;;;;;;;;;;;;;;;14.64;15.60;97029.06;6373414;27;20419;-65
2022/04/23 14:13:09;;;;;;;;;;;;;;;14.29;15.76;97029.94;6374319;27;19923;-65
2022/04/23 14:16:13;;;;;;;;;;;;;;;14.13;16.03;97037.41;6373443;27;19931;-68
2022/04/23 14:19:18;;;;;;;;;;;;;;;14.15;16.04;97043.41;6374034;27;19923;-65
2022/04/23 14:22:22;;;;;;;;;;;;;;;14.23;16.41;97046.31;6355221;27;20012;-66
2022/04/23 14:25:24;;;;;;;;;;;;;;;14.24;16.70;97033.91;6355514;27;19923;-67
2022/04/23 14:28:30;;;;;;;;;;;;;;;14.09;17.16;97033.28;6373627;27;20021;-68
2022/04/23 14:31:32;;;;;;;;;;;;;;;13.75;17.47;97046.41;6373385;27;19930;-69
2022/04/23 14:34:34;;;;;;;;;;;;;;;13.73;17.90;97042.19;6373145;27;19924;-69
2022/04/23 14:37:35;;;;;;;;;;;;;;;13.48;18.11;97039.59;6372656;27;19930;-69
2022/04/23 14:40:37;;;;;;;;;;;;;;;13.19;18.31;97032.91;6372754;27;19930;-69
2022/04/23 14:43:41;;;;;;;;;;;;;;;12.97;18.52;97037.13;6373616;27;19919;-68
2022/04/23 14:46:42;;;;;;;;;;;;;;;12.97;18.56;97041.56;6372578;27;19923;-69
2022/04/23 14:49:43;;;;;;;;;;;;;;;13.18;18.84;97034.72;6372250;27;19930;-67
2022/04/23 14:56:04;;;;;;;;;;;;;;;12.81;19.25;97036.53;6373167;27;19923;-69
2022/04/23 14:59:08;;;;;;;;;;;;;;;12.50;19.57;97041.31;6372700;27;19923;-69
2022/04/23 15:02:09;;;;;;;;;;;;;;;12.28;19.64;97041.13;6372794;27;20151;-66
2022/04/23 15:05:13;;;;;;;;;;;;;;;12.02;19.84;97035.84;6372939;27;19955;-67
2022/04/23 15:08:16;;;;;;;;;;;;;;;11.83;19.84;97046.78;6371570;27;20308;-65
2022/04/23 15:11:20;;;;;;;;;;;;;;;11.85;20.24;97049.31;6372128;27;19931;-69
2022/04/23 15:14:21;;;;;;;;;;;;;;;11.93;20.54;97047.03;6371748;27;19923;-69
2022/04/23 15:17:23;;;;;;;;;;;;;;;11.73;20.59;97052.75;6371578;27;20011;-69
2022/04/23 15:20:25;;;;;;;;;;;;;;;11.80;21.00;97056.66;6372499;27;19924;-69
2022/04/23 15:23:30;;;;;;;;;;;;;;;11.79;21.24;97053.19;6371689;27;19962;-69
2022/04/23 15:26:32;;;;;;;;;;;;;;;11.68;21.35;97053.91;6372420;27;19930;-69
2022/04/23 15:29:33;;;;;;;;;;;;;;;11.37;21.11;97054.22;6371416;27;19923;-69
2022/04/23 15:32:34;;;;;;;;;;;;;;;11.20;21.52;97058.78;6371569;27;19923;-69
2022/04/23 15:35:36;;;;;;;;;;;;;;;11.09;21.53;97061.28;6371464;27;20452;-69
2022/04/23 15:38:37;;;;;;;;;;;;;;;11.20;21.80;97050.06;6372346;27;20367;-69
2022/04/23 15:41:38;;;;;;;;;;;;;;;11.05;21.74;97059.78;6371015;27;19923;-69
2022/04/23 15:44:40;;;;;;;;;;;;;;;10.94;21.67;97062.25;6371317;27;19923;-69
2022/04/23 15:47:41;;;;;;;;;;;;;;;10.85;21.70;97062.84;6371070;27;20025;-69
2022/04/23 15:50:44;;;;;;;;;;;;;;;10.79;21.80;97070.19;6371689;27;19923;-69
2022/04/23 15:53:46;;;;;;;;;;;;;;;10.76;21.96;97057.22;6371974;27;19923;-69
2022/04/23 15:56:47;;;;;;;;;;;;;;;10.71;22.07;97076.88;6370955;27;19945;-69
2022/04/23 15:59:49;;;;;;;;;;;;;;;10.64;21.98;97075.53;6371787;27;19923;-69
2022/04/23 16:03:24;;;;;;;;;;;;;;;10.63;22.35;97074.69;6371782;27;20295;-69
2022/04/23 16:06:11;;;;;;;;;;;;;;;10.57;22.36;97067.19;6371274;27;20084;-69
2022/04/23 16:09:12;;;;;;;;;;;;;;;10.64;22.68;97081.66;6371450;27;19923;-69
2022/04/23 16:12:16;;;;;;;;;;;;;;;10.53;22.77;97079.69;6370999;27;19924;-67
2022/04/23 16:15:18;;;;;;;;;;;;;;;10.47;22.55;97095.00;6370570;27;19924;-65
2022/04/23 16:18:22;;;;;;;;;;;;;;;10.34;22.63;97090.50;6371712;28;20303;-65
2022/04/23 16:21:23;;;;;;;;;;;;;;;10.50;22.94;97100.06;6379500;27;19927;-65
2022/04/23 16:24:29;;;;;;;;;;;;;;;10.38;22.85;97096.41;6379967;27;19923;-65
2022/04/23 16:27:31;;;;;;;;;;;;;;;10.33;23.10;97099.31;6361317;27;19923;-67
2022/04/23 16:30:34;;;;;;;;;;;;;;;10.24;22.99;97102.44;6378990;27;20023;-66
2022/04/23 16:33:37;;;;;;;;;;;;;;;10.23;23.49;97098.16;6379181;27;19923;-63
2022/04/23 16:46:39;;;;;;;;;;;;;;;10.00;24.15;97111.81;6379725;27;19924;-65
2022/04/23 16:49:40;;;;;;;;;;;;;;;9.83;24.16;97107.53;6378993;27;19951;-65
2022/04/23 16:52:41;;;;;;;;;;;;;;;9.74;23.95;97106.28;6378828;27;19951;-65
2022/04/23 16:55:44;;;;;;;;;;;;;;;9.73;24.42;97112.47;6379085;27;19941;-65
2022/04/23 16:58:45;;;;;;;;;;;;;;;9.71;24.06;97116.13;6379082;27;19924;-65
2022/04/23 17:01:49;;;;;;;;;;;;;;;9.66;24.35;97119.03;6379511;27;19923;-64
2022/04/23 17:04:50;;;;;;;;;;;;;;;9.59;24.38;97118.50;6378776;27;19923;-65
2022/04/23 17:07:53;;;;;;;;;;;;;;;9.86;25.01;97126.59;6379182;27;20381;-65
2022/04/23 17:10:54;;;;;;;;;;;;;;;9.67;24.83;97118.91;6378455;27;19923;-65